sensor_id;sensor_type;location;lat;lon;timestamp;pressure;altitude;pressure_sealevel;temperature;humidity
68399;BME280;56258;52.196;13.868;2023-01-30T00:01:13;100987.38;;;19.03;31.42
68399;BME280;56258;52.196;13.868;2023-01-30T00:03:40;100979.47;;;19.02;31.09
68399;BME280;56258;52.196;13.868;2023-01-30T00:06:06;100968.69;;;18.93;30.93
68399;BME280;56258;52.196;13.868;2023-01-30T00:08:33;100971.38;;;19.02;30.72
68399;BME280;56258;52.196;13.868;2023-01-30T00:11:05;100969.84;;;19.07;31.08
68399;BME280;56258;52.196;13.868;2023-01-30T00:13:32;100974.22;;;19.08;30.56
68399;BME280;56258;52.196;13.868;2023-01-30T00:15:59;100972.03;;;19.04;30.69
68399;BME280;56258;52.196;13.868;2023-01-30T00:18:26;100976.59;;;19.03;31.05
68399;BME280;56258;52.196;13.868;2023-01-30T00:21:00;100987.84;;;19.07;30.75
68399;BME280;56258;52.196;13.868;2023-01-30T00:23:27;100978.28;;;19.04;30.69
68399;BME280;56258;52.196;13.868;2023-01-30T00:25:54;100983.97;;;19.09;31.08
68399;BME280;56258;52.196;13.868;2023-01-30T00:28:21;100970.50;;;19.09;31.56
68399;BME280;56258;52.196;13.868;2023-01-30T00:30:52;100980.97;;;19.04;30.88
68399;BME280;56258;52.196;13.868;2023-01-30T00:33:21;100960.91;;;19.07;30.85
68399;BME280;56258;52.196;13.868;2023-01-30T00:35:50;100953.66;;;19.07;30.85
68399;BME280;56258;52.196;13.868;2023-01-30T00:38:17;100942.88;;;19.07;31.28
68399;BME280;56258;52.196;13.868;2023-01-30T00:40:45;100933.78;;;19.08;30.70
68399;BME280;56258;52.196;13.868;2023-01-30T00:43:14;100929.41;;;19.07;31.18
68399;BME280;56258;52.196;13.868;2023-01-30T00:46:01;100915.28;;;19.05;31.17
68399;BME280;56258;52.196;13.868;2023-01-30T00:48:47;100908.22;;;19.04;31.29
68399;BME280;56258;52.196;13.868;2023-01-30T00:51:14;100904.00;;;19.02;31.08
68399;BME280;56258;52.196;13.868;2023-01-30T00:53:41;100904.16;;;19.08;30.82
68399;BME280;56258;52.196;13.868;2023-01-30T00:56:07;100881.56;;;19.09;30.76
68399;BME280;56258;52.196;13.868;2023-01-30T00:58:34;100885.97;;;19.10;30.93
68399;BME280;56258;52.196;13.868;2023-01-30T01:01:00;100867.78;;;19.12;30.55
68399;BME280;56258;52.196;13.868;2023-01-30T01:03:27;100857.69;;;19.06;30.91
68399;BME280;56258;52.196;13.868;2023-01-30T01:05:54;100830.44;;;19.01;30.98
68399;BME280;56258;52.196;13.868;2023-01-30T01:08:20;100823.84;;;19.04;31.02
68399;BME280;56258;52.196;13.868;2023-01-30T01:10:48;100824.69;;;19.04;31.25
68399;BME280;56258;52.196;13.868;2023-01-30T01:13:14;100813.09;;;18.95;31.07
68399;BME280;56258;52.196;13.868;2023-01-30T01:15:41;100793.72;;;19.00;31.27
68399;BME280;56258;52.196;13.868;2023-01-30T01:18:07;100789.09;;;19.17;30.61
68399;BME280;56258;52.196;13.868;2023-01-30T01:20:34;100776.19;;;19.35;31.18
68399;BME280;56258;52.196;13.868;2023-01-30T01:23:01;100755.66;;;19.57;30.90
68399;BME280;56258;52.196;13.868;2023-01-30T01:25:27;100744.94;;;19.72;30.46
68399;BME280;56258;52.196;13.868;2023-01-30T01:27:54;100763.00;;;19.86;30.08
68399;BME280;56258;52.196;13.868;2023-01-30T01:30:21;100758.19;;;19.96;30.03
68399;BME280;56258;52.196;13.868;2023-01-30T01:32:47;100758.72;;;20.15;29.90
68399;BME280;56258;52.196;13.868;2023-01-30T01:35:14;100753.69;;;20.26;29.31
68399;BME280;56258;52.196;13.868;2023-01-30T01:37:41;100754.16;;;20.30;29.72
68399;BME280;56258;52.196;13.868;2023-01-30T01:40:16;100750.53;;;20.37;29.61
68399;BME280;56258;52.196;13.868;2023-01-30T01:43:08;100736.94;;;20.46;29.67
68399;BME280;56258;52.196;13.868;2023-01-30T01:45:40;100716.81;;;20.48;29.53
68399;BME280;56258;52.196;13.868;2023-01-30T01:48:26;100685.81;;;20.59;29.75
68399;BME280;56258;52.196;13.868;2023-01-30T01:51:13;100678.72;;;20.58;29.39
68399;BME280;56258;52.196;13.868;2023-01-30T01:54:11;100673.13;;;20.59;29.62
68399;BME280;56258;52.196;13.868;2023-01-30T01:56:42;100677.50;;;20.60;29.29
68399;BME280;56258;52.196;13.868;2023-01-30T01:59:27;100676.66;;;20.60;29.69
68399;BME280;56258;52.196;13.868;2023-01-30T02:02:00;100689.34;;;20.59;29.93
68399;BME280;56258;52.196;13.868;2023-01-30T02:04:29;100693.91;;;20.59;29.63
68399;BME280;56258;52.196;13.868;2023-01-30T02:07:17;100682.00;;;20.53;29.70
68399;BME280;56258;52.196;13.868;2023-01-30T02:09:46;100699.84;;;20.69;29.13
68399;BME280;56258;52.196;13.868;2023-01-30T02:12:13;100682.13;;;20.81;28.91
68399;BME280;56258;52.196;13.868;2023-01-30T02:14:40;100683.75;;;20.76;29.11
68399;BME280;56258;52.196;13.868;2023-01-30T02:17:08;100681.97;;;20.68;30.05
68399;BME280;56258;52.196;13.868;2023-01-30T02:19:54;100678.19;;;20.62;30.04
68399;BME280;56258;52.196;13.868;2023-01-30T02:31:05;100640.19;;;20.64;29.91
68399;BME280;56258;52.196;13.868;2023-01-30T02:36:45;100622.34;;;20.69;29.76
68399;BME280;56258;52.196;13.868;2023-01-30T02:42:33;100588.22;;;20.62;29.80
68399;BME280;56258;52.196;13.868;2023-01-30T02:47:59;100589.28;;;20.67;30.08
68399;BME280;56258;52.196;13.868;2023-01-30T02:51:06;100565.56;;;20.63;29.98
68399;BME280;56258;52.196;13.868;2023-01-30T02:53:24;100572.50;;;20.72;29.70
68399;BME280;56258;52.196;13.868;2023-01-30T02:55:51;100571.94;;;20.77;29.45
68399;BME280;56258;52.196;13.868;2023-01-30T02:58:19;100535.47;;;20.66;30.21
68399;BME280;56258;52.196;13.868;2023-01-30T03:07:08;100564.78;;;20.90;29.42
68399;BME280;56258;52.196;13.868;2023-01-30T03:09:54;100548.25;;;21.00;29.36
68399;BME280;56258;52.196;13.868;2023-01-30T03:17:48;100534.25;;;21.18;28.91
68399;BME280;56258;52.196;13.868;2023-01-30T03:20:15;100508.25;;;21.17;29.11
68399;BME280;56258;52.196;13.868;2023-01-30T03:22:45;100525.31;;;21.17;28.75
68399;BME280;56258;52.196;13.868;2023-01-30T03:25:16;100509.88;;;21.11;29.61
68399;BME280;56258;52.196;13.868;2023-01-30T03:27:45;100506.53;;;21.31;28.66
68399;BME280;56258;52.196;13.868;2023-01-30T03:30:13;100498.72;;;21.21;29.09
68399;BME280;56258;52.196;13.868;2023-01-30T03:32:39;100512.50;;;21.26;28.66
68399;BME280;56258;52.196;13.868;2023-01-30T03:35:06;100509.69;;;21.13;29.18
68399;BME280;56258;52.196;13.868;2023-01-30T03:37:33;100498.03;;;21.12;29.38
68399;BME280;56258;52.196;13.868;2023-01-30T03:40:00;100496.16;;;21.13;29.05
68399;BME280;56258;52.196;13.868;2023-01-30T03:42:27;100481.69;;;21.20;28.80
68399;BME280;56258;52.196;13.868;2023-01-30T03:44:53;100473.28;;;21.09;28.78
68399;BME280;56258;52.196;13.868;2023-01-30T03:47:20;100463.34;;;20.88;29.04
68399;BME280;56258;52.196;13.868;2023-01-30T03:49:50;100460.06;;;20.71;29.44
68399;BME280;56258;52.196;13.868;2023-01-30T03:52:16;100456.38;;;20.51;30.31
68399;BME280;56258;52.196;13.868;2023-01-30T03:54:43;100457.34;;;20.43;30.59
68399;BME280;56258;52.196;13.868;2023-01-30T03:57:09;100437.19;;;20.24;30.41
68399;BME280;56258;52.196;13.868;2023-01-30T03:59:36;100449.16;;;20.15;30.51
68399;BME280;56258;52.196;13.868;2023-01-30T04:02:03;100446.19;;;20.10;30.41
68399;BME280;56258;52.196;13.868;2023-01-30T04:04:29;100439.41;;;19.99;30.61
68399;BME280;56258;52.196;13.868;2023-01-30T04:06:56;100433.75;;;19.94;30.10
68399;BME280;56258;52.196;13.868;2023-01-30T04:09:22;100455.16;;;19.96;30.39
68399;BME280;56258;52.196;13.868;2023-01-30T04:11:49;100435.00;;;19.92;30.56
68399;BME280;56258;52.196;13.868;2023-01-30T04:14:15;100439.72;;;19.90;30.60
68399;BME280;56258;52.196;13.868;2023-01-30T04:16:43;100435.16;;;19.90;29.99
68399;BME280;56258;52.196;13.868;2023-01-30T04:19:09;100432.00;;;19.87;30.43
68399;BME280;56258;52.196;13.868;2023-01-30T04:21:36;100432.94;;;19.94;30.33
68399;BME280;56258;52.196;13.868;2023-01-30T04:24:03;100428.28;;;19.88;30.15
68399;BME280;56258;52.196;13.868;2023-01-30T04:26:29;100430.34;;;19.86;30.12
68399;BME280;56258;52.196;13.868;2023-01-30T04:28:56;100429.75;;;19.90;30.20
68399;BME280;56258;52.196;13.868;2023-01-30T04:31:22;100416.84;;;19.86;30.08
68399;BME280;56258;52.196;13.868;2023-01-30T04:33:49;100410.19;;;19.81;29.95
68399;BME280;56258;52.196;13.868;2023-01-30T04:36:16;100414.91;;;19.79;29.93
68399;BME280;56258;52.196;13.868;2023-01-30T04:38:42;100392.31;;;19.80;30.37
68399;BME280;56258;52.196;13.868;2023-01-30T04:41:09;100394.53;;;19.77;30.12
68399;BME280;56258;52.196;13.868;2023-01-30T04:43:35;100397.25;;;19.77;30.37
68399;BME280;56258;52.196;13.868;2023-01-30T04:46:02;100378.75;;;19.74;30.36
68399;BME280;56258;52.196;13.868;2023-01-30T04:48:29;100373.16;;;19.75;30.04
68399;BME280;56258;52.196;13.868;2023-01-30T04:50:56;100370.47;;;19.75;30.29
68399;BME280;56258;52.196;13.868;2023-01-30T04:53:23;100365.47;;;19.72;30.40
68399;BME280;56258;52.196;13.868;2023-01-30T04:55:50;100375.59;;;19.70;30.39
68399;BME280;56258;52.196;13.868;2023-01-30T04:58:17;100365.47;;;19.72;30.70
68399;BME280;56258;52.196;13.868;2023-01-30T05:00:47;100361.47;;;19.68;30.24
68399;BME280;56258;52.196;13.868;2023-01-30T05:03:14;100345.84;;;19.64;30.17
68399;BME280;56258;52.196;13.868;2023-01-30T05:05:45;100351.06;;;19.65;30.39
68399;BME280;56258;52.196;13.868;2023-01-30T05:08:12;100340.47;;;19.64;30.64
68399;BME280;56258;52.196;13.868;2023-01-30T05:10:39;100338.16;;;19.61;30.06
68399;BME280;56258;52.196;13.868;2023-01-30T05:13:05;100339.81;;;19.62;30.49
68399;BME280;56258;52.196;13.868;2023-01-30T05:15:32;100333.41;;;19.63;30.52
68399;BME280;56258;52.196;13.868;2023-01-30T05:17:59;100331.53;;;19.63;30.24
68399;BME280;56258;52.196;13.868;2023-01-30T05:20:26;100317.63;;;19.60;29.95
68399;BME280;56258;52.196;13.868;2023-01-30T05:22:53;100319.66;;;19.58;30.19
68399;BME280;56258;52.196;13.868;2023-01-30T05:25:19;100311.75;;;19.56;30.38
68399;BME280;56258;52.196;13.868;2023-01-30T05:27:46;100312.59;;;19.57;30.53
68399;BME280;56258;52.196;13.868;2023-01-30T05:30:13;100306.50;;;19.54;30.36
68399;BME280;56258;52.196;13.868;2023-01-30T05:32:39;100307.72;;;19.52;30.35
68399;BME280;56258;52.196;13.868;2023-01-30T05:35:06;100302.72;;;19.49;30.04
68399;BME280;56258;52.196;13.868;2023-01-30T05:37:33;100301.06;;;19.48;30.58
68399;BME280;56258;52.196;13.868;2023-01-30T05:40:00;100293.16;;;19.46;30.38
68399;BME280;56258;52.196;13.868;2023-01-30T05:42:26;100281.72;;;19.44;30.70
68399;BME280;56258;52.196;13.868;2023-01-30T05:44:53;100279.59;;;19.40;30.78
68399;BME280;56258;52.196;13.868;2023-01-30T05:47:19;100280.25;;;19.42;30.22
68399;BME280;56258;52.196;13.868;2023-01-30T05:49:46;100275.69;;;19.42;31.00
68399;BME280;56258;52.196;13.868;2023-01-30T05:52:12;100275.25;;;19.39;30.33
68399;BME280;56258;52.196;13.868;2023-01-30T05:54:39;100285.38;;;19.37;30.43
68399;BME280;56258;52.196;13.868;2023-01-30T05:57:05;100280.84;;;19.37;30.51
68399;BME280;56258;52.196;13.868;2023-01-30T05:59:32;100264.75;;;19.29;30.56
68399;BME280;56258;52.196;13.868;2023-01-30T06:01:59;100270.88;;;19.38;30.63
68399;BME280;56258;52.196;13.868;2023-01-30T06:04:25;100265.69;;;19.36;30.66
68399;BME280;56258;52.196;13.868;2023-01-30T06:06:52;100261.38;;;19.42;30.37
68399;BME280;56258;52.196;13.868;2023-01-30T06:09:18;100248.69;;;19.36;30.90
68399;BME280;56258;52.196;13.868;2023-01-30T06:11:45;100248.28;;;19.39;30.65
68399;BME280;56258;52.196;13.868;2023-01-30T06:14:12;100239.97;;;19.34;30.63
68399;BME280;56258;52.196;13.868;2023-01-30T06:16:38;100238.94;;;19.35;30.55
68399;BME280;56258;52.196;13.868;2023-01-30T06:19:06;100243.28;;;19.36;30.93
68399;BME280;56258;52.196;13.868;2023-01-30T06:21:33;100237.06;;;19.35;30.52
68399;BME280;56258;52.196;13.868;2023-01-30T06:23:59;100227.47;;;19.33;30.15
68399;BME280;56258;52.196;13.868;2023-01-30T06:26:27;100226.66;;;19.32;30.34
68399;BME280;56258;52.196;13.868;2023-01-30T06:28:54;100226.00;;;19.30;30.93
68399;BME280;56258;52.196;13.868;2023-01-30T06:31:20;100216.69;;;19.33;30.38
68399;BME280;56258;52.196;13.868;2023-01-30T06:33:47;100206.31;;;19.30;31.05
68399;BME280;56258;52.196;13.868;2023-01-30T06:36:14;100229.28;;;19.26;30.31
68399;BME280;56258;52.196;13.868;2023-01-30T06:38:41;100222.59;;;19.21;30.92
68399;BME280;56258;52.196;13.868;2023-01-30T06:41:07;100216.06;;;19.31;30.82
68399;BME280;56258;52.196;13.868;2023-01-30T06:43:34;100209.19;;;19.28;30.89
68399;BME280;56258;52.196;13.868;2023-01-30T06:46:01;100207.09;;;19.23;30.31
68399;BME280;56258;52.196;13.868;2023-01-30T06:48:27;100219.53;;;19.24;30.52
68399;BME280;56258;52.196;13.868;2023-01-30T06:50:54;100219.16;;;19.28;30.57
68399;BME280;56258;52.196;13.868;2023-01-30T06:53:21;100214.97;;;19.25;30.57
68399;BME280;56258;52.196;13.868;2023-01-30T06:55:50;100220.38;;;19.25;30.81
68399;BME280;56258;52.196;13.868;2023-01-30T06:58:17;100216.56;;;19.19;30.55
68399;BME280;56258;52.196;13.868;2023-01-30T07:00:43;100212.41;;;19.17;30.84
68399;BME280;56258;52.196;13.868;2023-01-30T07:03:15;100228.66;;;19.23;30.20
68399;BME280;56258;52.196;13.868;2023-01-30T07:05:43;100205.78;;;19.19;30.95
68399;BME280;56258;52.196;13.868;2023-01-30T07:08:10;100209.06;;;19.15;30.96
68399;BME280;56258;52.196;13.868;2023-01-30T07:10:37;100240.56;;;19.14;31.15
68399;BME280;56258;52.196;13.868;2023-01-30T07:13:04;100213.19;;;19.11;31.48
68399;BME280;56258;52.196;13.868;2023-01-30T07:15:31;100230.53;;;19.08;31.21
68399;BME280;56258;52.196;13.868;2023-01-30T07:17:58;100201.91;;;19.22;31.19
68399;BME280;56258;52.196;13.868;2023-01-30T07:20:25;100221.00;;;19.27;31.16
68399;BME280;56258;52.196;13.868;2023-01-30T07:22:52;100231.97;;;19.26;30.86
68399;BME280;56258;52.196;13.868;2023-01-30T07:25:21;100217.88;;;19.23;31.59
68399;BME280;56258;52.196;13.868;2023-01-30T07:27:55;100208.94;;;19.23;31.16
68399;BME280;56258;52.196;13.868;2023-01-30T07:30:22;100186.81;;;19.28;31.16
68399;BME280;56258;52.196;13.868;2023-01-30T07:32:53;100209.59;;;19.25;31.36
68399;BME280;56258;52.196;13.868;2023-01-30T07:35:21;100197.38;;;19.29;31.14
68399;BME280;56258;52.196;13.868;2023-01-30T07:37:49;100195.59;;;19.36;30.85
68399;BME280;56258;52.196;13.868;2023-01-30T07:40:17;100196.25;;;19.38;31.10
68399;BME280;56258;52.196;13.868;2023-01-30T07:42:54;100203.09;;;19.41;30.96
68399;BME280;56258;52.196;13.868;2023-01-30T07:45:21;100171.78;;;19.40;31.32
68399;BME280;56258;52.196;13.868;2023-01-30T07:47:48;100194.38;;;19.39;31.52
68399;BME280;56258;52.196;13.868;2023-01-30T07:50:15;100197.06;;;19.39;31.23
68399;BME280;56258;52.196;13.868;2023-01-30T07:52:42;100176.97;;;19.41;31.26
68399;BME280;56258;52.196;13.868;2023-01-30T07:55:08;100181.53;;;19.41;31.20
68399;BME280;56258;52.196;13.868;2023-01-30T07:57:35;100171.53;;;19.35;31.47
68399;BME280;56258;52.196;13.868;2023-01-30T08:00:03;100178.00;;;19.40;31.38
68399;BME280;56258;52.196;13.868;2023-01-30T08:02:29;100189.81;;;19.39;31.40
68399;BME280;56258;52.196;13.868;2023-01-30T08:04:56;100185.84;;;19.35;31.47
68399;BME280;56258;52.196;13.868;2023-01-30T08:07:23;100176.25;;;19.33;31.21
68399;BME280;56258;52.196;13.868;2023-01-30T08:09:49;100190.41;;;19.35;31.57
68399;BME280;56258;52.196;13.868;2023-01-30T08:12:16;100195.03;;;19.41;31.49
68399;BME280;56258;52.196;13.868;2023-01-30T08:14:42;100187.31;;;19.38;31.39
68399;BME280;56258;52.196;13.868;2023-01-30T08:17:09;100189.38;;;19.36;31.39
68399;BME280;56258;52.196;13.868;2023-01-30T08:19:36;100169.88;;;19.34;31.42
68399;BME280;56258;52.196;13.868;2023-01-30T08:22:02;100176.75;;;19.36;31.35
68399;BME280;56258;52.196;13.868;2023-01-30T08:24:30;100173.97;;;19.30;31.29
68399;BME280;56258;52.196;13.868;2023-01-30T08:26:56;100170.00;;;19.26;31.77
68399;BME280;56258;52.196;13.868;2023-01-30T08:29:23;100175.81;;;19.29;31.31
68399;BME280;56258;52.196;13.868;2023-01-30T08:31:49;100166.50;;;19.32;31.55
68399;BME280;56258;52.196;13.868;2023-01-30T08:34:16;100178.09;;;19.26;31.82
68399;BME280;56258;52.196;13.868;2023-01-30T08:36:42;100185.38;;;19.32;31.52
68399;BME280;56258;52.196;13.868;2023-01-30T08:39:11;100175.81;;;19.29;30.98
68399;BME280;56258;52.196;13.868;2023-01-30T08:41:39;100162.56;;;19.28;31.10
68399;BME280;56258;52.196;13.868;2023-01-30T08:44:09;100159.53;;;19.37;31.35
68399;BME280;56258;52.196;13.868;2023-01-30T08:46:36;100165.31;;;19.34;31.47
68399;BME280;56258;52.196;13.868;2023-01-30T08:49:04;100165.25;;;19.28;31.31
68399;BME280;56258;52.196;13.868;2023-01-30T08:51:31;100162.56;;;19.28;31.61
68399;BME280;56258;52.196;13.868;2023-01-30T08:53:58;100171.66;;;19.27;31.50
68399;BME280;56258;52.196;13.868;2023-01-30T08:56:25;100174.34;;;19.27;31.51
68399;BME280;56258;52.196;13.868;2023-01-30T08:58:51;100172.69;;;19.26;31.31
68399;BME280;56258;52.196;13.868;2023-01-30T09:01:18;100169.81;;;19.27;31.54
68399;BME280;56258;52.196;13.868;2023-01-30T09:03:44;100170.25;;;19.31;31.37
68399;BME280;56258;52.196;13.868;2023-01-30T09:06:11;100165.69;;;19.31;30.90
68399;BME280;56258;52.196;13.868;2023-01-30T09:08:38;100188.56;;;19.35;31.60
68399;BME280;56258;52.196;13.868;2023-01-30T09:11:05;100185.03;;;19.35;31.13
68399;BME280;56258;52.196;13.868;2023-01-30T09:13:33;100186.41;;;19.31;31.10
68399;BME280;56258;52.196;13.868;2023-01-30T09:16:00;100191.81;;;19.31;31.20
68399;BME280;56258;52.196;13.868;2023-01-30T09:18:26;100166.28;;;19.27;31.38
68399;BME280;56258;52.196;13.868;2023-01-30T09:21:01;100170.50;;;19.36;31.04
68399;BME280;56258;52.196;13.868;2023-01-30T09:23:28;100166.31;;;19.33;31.48
68399;BME280;56258;52.196;13.868;2023-01-30T09:25:55;100183.16;;;19.35;31.11
68399;BME280;56258;52.196;13.868;2023-01-30T09:28:21;100173.56;;;19.33;31.02
68399;BME280;56258;52.196;13.868;2023-01-30T09:30:48;100182.31;;;19.35;31.34
68399;BME280;56258;52.196;13.868;2023-01-30T09:33:14;100157.78;;;19.30;30.98
68399;BME280;56258;52.196;13.868;2023-01-30T09:35:48;100169.16;;;19.46;30.86
68399;BME280;56258;52.196;13.868;2023-01-30T09:38:15;100170.63;;;19.49;31.21
68399;BME280;56258;52.196;13.868;2023-01-30T09:46:37;100159.41;;;20.29;30.13
68399;BME280;56258;52.196;13.868;2023-01-30T09:49:34;100170.47;;;20.06;30.18
68399;BME280;56258;52.196;13.868;2023-01-30T09:52:19;100183.16;;;20.06;30.49
68399;BME280;56258;52.196;13.868;2023-01-30T09:54:51;100169.19;;;20.02;30.40
68399;BME280;56258;52.196;13.868;2023-01-30T09:57:24;100184.31;;;19.97;30.02
68399;BME280;56258;52.196;13.868;2023-01-30T10:00:03;100203.66;;;19.79;30.75
68399;BME280;56258;52.196;13.868;2023-01-30T10:02:35;100198.81;;;19.68;30.75
68399;BME280;56258;52.196;13.868;2023-01-30T10:05:05;100187.19;;;19.67;31.13
68399;BME280;56258;52.196;13.868;2023-01-30T10:07:56;100183.53;;;19.75;30.58
68399;BME280;56258;52.196;13.868;2023-01-30T10:10:49;100169.16;;;19.68;30.50
68399;BME280;56258;52.196;13.868;2023-01-30T10:16:17;100178.72;;;19.49;30.81
68399;BME280;56258;52.196;13.868;2023-01-30T10:21:41;100165.16;;;19.57;30.89
68399;BME280;56258;52.196;13.868;2023-01-30T10:27:14;100161.78;;;19.55;30.83
68399;BME280;56258;52.196;13.868;2023-01-30T10:29:53;100168.06;;;19.62;30.81
68399;BME280;56258;52.196;13.868;2023-01-30T10:32:32;100172.72;;;19.68;30.78
68399;BME280;56258;52.196;13.868;2023-01-30T10:35:13;100161.94;;;19.75;30.46
68399;BME280;56258;52.196;13.868;2023-01-30T10:38:03;100158.31;;;19.61;30.90
68399;BME280;56258;52.196;13.868;2023-01-30T10:40:38;100168.91;;;19.63;31.10
68399;BME280;56258;52.196;13.868;2023-01-30T10:43:21;100159.25;;;19.75;30.74
68399;BME280;56258;52.196;13.868;2023-01-30T10:45:52;100158.41;;;19.74;30.85
68399;BME280;56258;52.196;13.868;2023-01-30T10:51:33;100145.59;;;20.11;29.84
68399;BME280;56258;52.196;13.868;2023-01-30T10:54:20;100139.78;;;20.14;29.94
68399;BME280;56258;52.196;13.868;2023-01-30T11:02:29;100121.09;;;20.06;29.98
68399;BME280;56258;52.196;13.868;2023-01-30T11:05:13;100125.44;;;20.07;30.03
68399;BME280;56258;52.196;13.868;2023-01-30T11:07:42;100123.16;;;20.04;30.56
68399;BME280;56258;52.196;13.868;2023-01-30T11:10:25;100131.69;;;20.14;30.19
68399;BME280;56258;52.196;13.868;2023-01-30T11:12:57;100130.69;;;20.15;29.97
68399;BME280;56258;52.196;13.868;2023-01-30T11:15:39;100125.81;;;20.38;29.58
68399;BME280;56258;52.196;13.868;2023-01-30T11:18:06;100122.03;;;20.33;29.93
68399;BME280;56258;52.196;13.868;2023-01-30T11:21:01;100126.06;;;20.09;30.60
68399;BME280;56258;52.196;13.868;2023-01-30T11:23:38;100116.66;;;19.98;30.29
68399;BME280;56258;52.196;13.868;2023-01-30T11:26:06;100115.16;;;19.89;30.73
68399;BME280;56258;52.196;13.868;2023-01-30T11:28:42;100107.41;;;19.79;31.00
68399;BME280;56258;52.196;13.868;2023-01-30T11:31:20;100116.94;;;19.75;30.91
68399;BME280;56258;52.196;13.868;2023-01-30T11:34:12;100092.63;;;19.69;31.04
68399;BME280;56258;52.196;13.868;2023-01-30T11:36:41;100099.28;;;19.73;31.16
68399;BME280;56258;52.196;13.868;2023-01-30T11:42:01;100101.09;;;19.66;30.88
68399;BME280;56258;52.196;13.868;2023-01-30T11:44:36;100100.66;;;19.62;30.83
68399;BME280;56258;52.196;13.868;2023-01-30T11:47:12;100081.78;;;19.62;31.07
68399;BME280;56258;52.196;13.868;2023-01-30T11:49:44;100079.28;;;19.61;31.19
68399;BME280;56258;52.196;13.868;2023-01-30T11:52:36;100075.78;;;19.67;31.15
68399;BME280;56258;52.196;13.868;2023-01-30T11:55:06;100076.44;;;19.69;31.18
68399;BME280;56258;52.196;13.868;2023-01-30T11:57:43;100071.69;;;19.71;30.76
68399;BME280;56258;52.196;13.868;2023-01-30T12:00:16;100058.97;;;19.65;30.61
68399;BME280;56258;52.196;13.868;2023-01-30T12:02:46;100059.66;;;19.73;30.77
68399;BME280;56258;52.196;13.868;2023-01-30T12:05:33;100067.97;;;19.78;30.81
68399;BME280;56258;52.196;13.868;2023-01-30T12:11:00;100059.25;;;19.70;31.17
68399;BME280;56258;52.196;13.868;2023-01-30T12:13:34;100050.25;;;19.63;31.00
68399;BME280;56258;52.196;13.868;2023-01-30T12:18:37;100046.59;;;19.77;31.04
68399;BME280;56258;52.196;13.868;2023-01-30T12:23:59;100041.13;;;19.98;30.42
68399;BME280;56258;52.196;13.868;2023-01-30T12:26:36;100031.59;;;20.02;30.18
68399;BME280;56258;52.196;13.868;2023-01-30T12:29:20;100030.75;;;20.02;30.88
68399;BME280;56258;52.196;13.868;2023-01-30T12:32:05;100027.78;;;19.90;30.96
68399;BME280;56258;52.196;13.868;2023-01-30T12:34:32;100025.25;;;19.75;31.01
68399;BME280;56258;52.196;13.868;2023-01-30T12:39:47;100016.78;;;19.85;31.09
68399;BME280;56258;52.196;13.868;2023-01-30T12:50:23;99997.75;;;20.00;30.33
68399;BME280;56258;52.196;13.868;2023-01-30T12:53:08;99984.88;;;20.02;30.54
68399;BME280;56258;52.196;13.868;2023-01-30T12:56:16;99989.06;;;20.04;30.65
68399;BME280;56258;52.196;13.868;2023-01-30T13:01:43;99985.91;;;19.94;30.77
68399;BME280;56258;52.196;13.868;2023-01-30T13:07:32;99988.19;;;19.97;31.14
68399;BME280;56258;52.196;13.868;2023-01-30T13:15:36;99995.81;;;19.80;30.89
68399;BME280;56258;52.196;13.868;2023-01-30T13:18:22;99987.75;;;19.87;30.83
68399;BME280;56258;52.196;13.868;2023-01-30T13:20:55;99993.25;;;20.20;30.71
68399;BME280;56258;52.196;13.868;2023-01-30T13:23:40;100001.03;;;20.43;29.99
68399;BME280;56258;52.196;13.868;2023-01-30T13:26:16;99984.88;;;20.50;30.37
68399;BME280;56258;52.196;13.868;2023-01-30T13:28:52;99990.06;;;20.58;30.00
68399;BME280;56258;52.196;13.868;2023-01-30T13:31:24;100003.38;;;20.66;30.09
68399;BME280;56258;52.196;13.868;2023-01-30T13:34:04;100007.72;;;20.54;29.75
68399;BME280;56258;52.196;13.868;2023-01-30T13:36:54;100007.63;;;20.34;30.21
68399;BME280;56258;52.196;13.868;2023-01-30T13:44:51;100002.06;;;19.88;31.20
68399;BME280;56258;52.196;13.868;2023-01-30T13:50:22;99997.44;;;19.75;31.25
68399;BME280;56258;52.196;13.868;2023-01-30T13:53:06;99991.81;;;19.70;31.36
68399;BME280;56258;52.196;13.868;2023-01-30T14:01:11;99978.81;;;19.52;31.16
68399;BME280;56258;52.196;13.868;2023-01-30T14:03:40;99973.88;;;19.56;31.40
68399;BME280;56258;52.196;13.868;2023-01-30T14:06:29;99973.06;;;19.55;31.51
68399;BME280;56258;52.196;13.868;2023-01-30T14:08:57;99967.00;;;19.53;31.11
68399;BME280;56258;52.196;13.868;2023-01-30T14:11:36;99973.31;;;19.60;31.45
68399;BME280;56258;52.196;13.868;2023-01-30T14:16:46;99961.41;;;19.54;31.47
68399;BME280;56258;52.196;13.868;2023-01-30T14:19:36;99955.16;;;19.47;31.34
68399;BME280;56258;52.196;13.868;2023-01-30T14:22:31;99966.81;;;19.54;31.33
68399;BME280;56258;52.196;13.868;2023-01-30T14:30:53;99970.53;;;19.53;31.63
68399;BME280;56258;52.196;13.868;2023-01-30T14:59:33;100089.56;;;19.50;31.67
68399;BME280;56258;52.196;13.868;2023-01-30T15:09:57;100107.72;;;19.42;31.65
68399;BME280;56258;52.196;13.868;2023-01-30T15:15:54;100119.22;;;19.50;31.49
68399;BME280;56258;52.196;13.868;2023-01-30T15:24:05;100128.06;;;19.44;31.66
68399;BME280;56258;52.196;13.868;2023-01-30T15:32:23;100130.59;;;19.46;31.30
68399;BME280;56258;52.196;13.868;2023-01-30T15:34:55;100134.13;;;19.46;31.79
68399;BME280;56258;52.196;13.868;2023-01-30T15:45:35;100141.38;;;19.46;31.74